Terminal Aerodrome Forecast
Issued by NWS

Home | Current Version | Previous Version | Text Only | Print | Product List | Glossary On
Versions: 1 2 3 4 5 6 7 8 9 10 11 12 13 14 15 16 17
000
FTUS44 KLIX 042045 AAA
TAFHUM
TAF AMD
KHUM 042045Z 0421/0518 33014KT 5SM SHRA BR OVC015
      TEMPO 0421/0424 2SM SHRA OVC007
     FM050000 01007KT 5SM BR OVC015
      TEMPO 0500/0503 2SM SHRA OVC007
     FM050300 02008KT 4SM SHRA BR BKN007 OVC015
     FM051400 09009KT 5SM BR OVC015
      TEMPO 0514/0518 2SM TSRA OVC008CB=

USA.gov is the U.S. government's official web portal to all federal, state and local government web resources and services.